• Join FlightAware (Why Join?)
  • Login
  • US Flag 
02:54AM EDT


 

Airport Tracker/Info


-or-


 

Live Flight TrackerFlight Track Log ✈ SIA422 ✈ 03-May-2012 ✈ WSSS / SIN - VABB / BOM

Flight Track Log - Related Links

Times and Time Zones

All times are in EDT time to prevent confusion due to time zone crossing. See the SIA422 flight status page for this flight to view local times or setup timezone preferences in your user account.

Time Position Orientation Groundspeed Altitude Reporting Facility
EDT Latitude Longitude Course Direction KTS MPH feet Rate Location/Type
02:42PM 1.3722 103.9613 302° West  Level Estimated
02:43PM 1.4382 103.8566 302° West  Level Estimated
02:44PM 1.5041 103.7518 302° West  Level Estimated
02:45PM 1.5701 103.6471 302° West  Level Estimated
02:46PM 1.6360 103.5424 302° West  Level Estimated
02:47PM 1.7020 103.4377 302° West  Level Estimated
02:48PM 1.7679 103.3329 302° West  Level Estimated
02:49PM 1.8338 103.2282 302° West  Level Estimated
02:50PM 1.8998 103.1234 302° West  Level Estimated
02:51PM 1.9657 103.0187 302° West  Level Estimated
02:52PM 2.0316 102.9139 302° West  Level Estimated
02:53PM 2.0975 102.8091 302° West  Level Estimated
02:54PM 2.1634 102.7043 302° West  Level Estimated
02:55PM 2.2293 102.5995 302° West  Level Estimated
02:56PM 2.2952 102.4947 302° West  Level Estimated
02:57PM 2.3611 102.3899 302° West  Level Estimated
02:58PM 2.4269 102.2851 302° West  Level Estimated
02:59PM 2.4928 102.1802 302° West  Level Estimated
03:00PM 2.5586 102.0754 302° West  Level Estimated
03:01PM 2.6245 101.9705 302° West  Level Estimated
03:02PM 2.6903 101.8656 302° West  Level Estimated
03:03PM 2.7561 101.7608 302° West  Level Estimated
03:04PM 2.8220 101.6559 302° West  Level Estimated
03:05PM 2.8878 101.5510 302° West  Level Estimated
03:06PM 2.9536 101.4460 302° West  Level Estimated
03:07PM 3.0194 101.3411 302° West  Level Estimated
03:08PM 3.0851 101.2362 302° West  Level Estimated
03:09PM 3.1509 101.1312 302° West  Level Estimated
03:10PM 3.2167 101.0262 302° West  Level Estimated
03:11PM 3.2824 100.9212 302° West  Level Estimated
03:12PM 3.3482 100.8163 302° West  Level Estimated
03:13PM 3.4139 100.7112 302° West  Level Estimated
03:14PM 3.4796 100.6062 302° West  Level Estimated
03:15PM 3.5453 100.5012 302° West  Level Estimated
03:16PM 3.6110 100.3961 302° West  Level Estimated
03:17PM 3.6767 100.2911 302° West  Level Estimated
03:18PM 3.7423 100.1860 302° West  Level Estimated
03:19PM 3.8080 100.0809 302° West  Level Estimated
03:20PM 3.8736 99.9758 302° West  Level Estimated
03:21PM 3.9392 99.8706 302° West  Level Estimated
03:22PM 4.0048 99.7655 302° West  Level Estimated
03:23PM 4.0704 99.6603 302° West  Level Estimated
03:24PM 4.1360 99.5551 302° West  Level Estimated
03:25PM 4.2016 99.4499 302° West  Level Estimated
03:26PM 4.2672 99.3447 302° West  Level Estimated
03:27PM 4.3327 99.2395 302° West  Level Estimated
03:28PM 4.3982 99.1342 302° West  Level Estimated
03:29PM 4.4637 99.0289 302° West  Level Estimated
03:30PM 4.5292 98.9237 302° West  Level Estimated
03:31PM 4.5947 98.8183 302° West  Level Estimated
03:32PM 4.6602 98.7130 302° West  Level Estimated
03:33PM 4.7256 98.6077 302° West  Level Estimated
03:34PM 4.7911 98.5023 302° West  Level Estimated
03:35PM 4.8565 98.3969 302° West  Level Estimated
03:36PM 4.9219 98.2915 302° West  Level Estimated
03:37PM 4.9873 98.1861 302° West  Level Estimated
03:38PM 5.0527 98.0806 302° West  Level Estimated
03:39PM 5.1180 97.9751 302° West  Level Estimated
03:40PM 5.1834 97.8697 302° West  Level Estimated
03:41PM 5.2487 97.7641 302° West  Level Estimated
03:42PM 5.3140 97.6586 302° West  Level Estimated
03:43PM 5.3793 97.5530 302° West  Level Estimated
03:44PM 5.4445 97.4474 302° West  Level Estimated
03:45PM 5.5098 97.3418 302° West  Level Estimated
03:46PM 5.5750 97.2362 302° West  Level Estimated
03:47PM 5.6402 97.1306 302° West  Level Estimated
03:48PM 5.7054 97.0249 302° West  Level Estimated
03:49PM 5.7706 96.9192 302° West  Level Estimated
03:50PM 5.8357 96.8135 302° West  Level Estimated
03:51PM 5.9008 96.7077 302° West  Level Estimated
03:52PM 5.9660 96.6019 302° West  Level Estimated
03:53PM 6.0310 96.4961 302° West  Level Estimated
03:54PM 6.0961 96.3903 302° West  Level Estimated
03:55PM 6.1612 96.2845 302° West  Level Estimated
03:56PM 6.2262 96.1786 302° West  Level Estimated
03:57PM 6.2912 96.0727 302° West  Level Estimated
03:58PM 6.3562 95.9668 302° West  Level Estimated
03:59PM 6.4212 95.8608 302° West  Level Estimated
04:00PM 6.4861 95.7548 302° West  Level Estimated
04:01PM 6.5510 95.6488 302° West  Level Estimated
04:02PM 6.6159 95.5427 302° West  Level Estimated
04:03PM 6.6808 95.4367 302° West  Level Estimated
04:04PM 6.7456 95.3306 302° West  Level Estimated
04:05PM 6.8105 95.2245 302° West  Level Estimated
04:06PM 6.8753 95.1183 302° West  Level Estimated
04:07PM 6.9401 95.0121 302° West  Level Estimated
04:08PM 7.0048 94.9059 302° West  Level Estimated
04:09PM 7.0696 94.7997 302° West  Level Estimated
04:10PM 7.1343 94.6934 302° West  Level Estimated
04:11PM 7.1990 94.5871 302° West  Level Estimated
04:12PM 7.2636 94.4808 302° West  Level Estimated
04:13PM 7.3283 94.3744 301° West  Level Estimated
04:14PM 7.3929 94.2680 301° West  Level Estimated
04:15PM 7.4575 94.1616 301° West  Level Estimated
04:16PM 7.5220 94.0552 301° West  Level Estimated
04:17PM 7.5866 93.9487 301° West  Level Estimated
04:18PM 7.6511 93.8422 301° West  Level Estimated
04:19PM 7.7156 93.7356 301° West  Level Estimated
04:20PM 7.7800 93.6290 301° West  Level Estimated
04:21PM 7.8445 93.5224 301° West  Level Estimated
04:22PM 7.9089 93.4158 301° West  Level Estimated
04:23PM 7.9732 93.3091 301° West  Level Estimated
04:24PM 8.0376 93.2023 301° West  Level Estimated
04:25PM 8.1019 93.0956 301° West  Level Estimated
04:26PM 8.1662 92.9888 301° West  Level Estimated
04:27PM 8.2305 92.8820 301° West  Level Estimated
04:28PM 8.2947 92.7751 301° West  Level Estimated
04:29PM 8.3589 92.6683 301° West  Level Estimated
04:30PM 8.4231 92.5613 301° West  Level Estimated
04:31PM 8.4873 92.4544 301° West  Level Estimated
04:32PM 8.5514 92.3474 301° West  Level Estimated
04:33PM 8.6155 92.2403 301° West  Level Estimated
04:34PM 8.6796 92.1333 301° West  Level Estimated
04:35PM 8.7436 92.0262 301° West  Level Estimated
04:36PM 8.8076 91.9190 301° West  Level Estimated
04:37PM 8.8716 91.8119 301° West  Level Estimated
04:38PM 8.9355 91.7047 301° West  Level Estimated
04:39PM 8.9995 91.5974 301° West  Level Estimated
04:40PM 9.0633 91.4901 301° West  Level Estimated
04:41PM 9.1272 91.3828 301° West  Level Estimated
04:42PM 9.1910 91.2754 301° West  Level Estimated
04:43PM 9.2548 91.1680 301° West  Level Estimated
04:44PM 9.3186 91.0606 301° West  Level Estimated
04:45PM 9.3823 90.9531 301° West  Level Estimated
04:46PM 9.4460 90.8456 301° West  Level Estimated
04:47PM 9.5096 90.7380 301° West  Level Estimated
04:48PM 9.5733 90.6304 301° West  Level Estimated
04:49PM 9.6369 90.5228 301° West  Level Estimated
04:50PM 9.7004 90.4151 301° West  Level Estimated
04:51PM 9.7639 90.3074 301° West  Level Estimated
04:52PM 9.8274 90.1996 301° West  Level Estimated
04:53PM 9.8909 90.0918 301° West  Level Estimated
04:54PM 9.9543 89.9839 301° West  Level Estimated
04:55PM 10.0177 89.8761 301° West  Level Estimated
04:56PM 10.0811 89.7681 301° West  Level Estimated
04:57PM 10.1444 89.6601 301° West  Level Estimated
04:58PM 10.2077 89.5521 301° West  Level Estimated
04:59PM 10.2709 89.4441 301° West  Level Estimated
05:00PM 10.3341 89.3360 301° West  Level Estimated
05:01PM 10.3973 89.2278 301° West  Level Estimated
05:02PM 10.4604 89.1196 301° West  Level Estimated
05:03PM 10.5235 89.0114 301° West  Level Estimated
05:04PM 10.5866 88.9031 301° West  Level Estimated
05:05PM 10.6496 88.7948 301° West  Level Estimated
05:06PM 10.7126 88.6864 301° West  Level Estimated
05:07PM 10.7756 88.5780 301° West  Level Estimated
05:08PM 10.8385 88.4695 301° West  Level Estimated
05:09PM 10.9014 88.3610 301° West  Level Estimated
05:10PM 10.9642 88.2525 301° West  Level Estimated
05:11PM 11.0270 88.1439 300° West  Level Estimated
05:12PM 11.0898 88.0352 300° West  Level Estimated
05:13PM 11.1525 87.9266 300° West  Level Estimated
05:14PM 11.2152 87.8178 300° West  Level Estimated
05:15PM 11.2779 87.7090 300° West  Level Estimated
05:16PM 11.3405 87.6002 300° West  Level Estimated
05:17PM 11.4031 87.4913 300° West  Level Estimated
05:18PM 11.4656 87.3824 300° West  Level Estimated
05:19PM 11.5281 87.2734 300° West  Level Estimated
05:20PM 11.5905 87.1644 300° West  Level Estimated
05:21PM 11.6529 87.0553 300° West  Level Estimated
05:22PM 11.7153 86.9462 300° West  Level Estimated
05:23PM 11.7776 86.8370 300° West  Level Estimated
05:24PM 11.8399 86.7278 300° West  Level Estimated
05:25PM 11.9021 86.6186 300° West  Level Estimated
05:26PM 11.9643 86.5092 300° West  Level Estimated
05:27PM 12.0265 86.3999 300° West  Level Estimated
05:28PM 12.0886 86.2904 300° West  Level Estimated
05:29PM 12.1507 86.1810 300° West  Level Estimated
05:30PM 12.2127 86.0714 300° West  Level Estimated
05:31PM 12.2747 85.9619 300° West  Level Estimated
05:32PM 12.3366 85.8523 300° West  Level Estimated
05:33PM 12.3985 85.7426 300° West  Level Estimated
05:34PM 12.4604 85.6329 300° West  Level Estimated
05:35PM 12.5222 85.5231 300° West  Level Estimated
05:36PM 12.5840 85.4132 300° West  Level Estimated
05:37PM 12.6457 85.3034 300° West  Level Estimated
05:38PM 12.7073 85.1934 300° West  Level Estimated
05:39PM 12.7690 85.0834 300° West  Level Estimated
05:40PM 12.8306 84.9734 300° West  Level Estimated
05:41PM 12.8921 84.8633 300° West  Level Estimated
05:42PM 12.9536 84.7531 300° West  Level Estimated
05:43PM 13.0150 84.6429 300° West  Level Estimated
05:44PM 13.0764 84.5326 300° West  Level Estimated
05:45PM 13.1378 84.4223 300° West  Level Estimated
05:46PM 13.1991 84.3119 300° West  Level Estimated
05:47PM 13.2604 84.2015 300° West  Level Estimated
05:48PM 13.3216 84.0910 300° West  Level Estimated
05:49PM 13.3827 83.9805 300° West  Level Estimated
05:50PM 13.4438 83.8699 300° West  Level Estimated
05:51PM 13.5049 83.7592 300° West  Level Estimated
05:52PM 13.5659 83.6485 300° West  Level Estimated
05:53PM 13.6269 83.5378 300° West  Level Estimated
05:54PM 13.6878 83.4269 299° West  Level Estimated
05:55PM 13.7487 83.3160 299° West  Level Estimated
05:56PM 13.8095 83.2051 299° West  Level Estimated
05:57PM 13.8703 83.0941 299° West  Level Estimated
05:58PM 13.9310 82.9830 299° West  Level Estimated
05:59PM 13.9917 82.8719 299° West  Level Estimated
06:00PM 14.0523 82.7608 299° West  Level Estimated
06:01PM 14.1129 82.6495 299° West  Level Estimated
06:02PM 14.1734 82.5382 299° West  Level Estimated
06:03PM 14.2338 82.4269 299° West  Level Estimated
06:04PM 14.2943 82.3155 299° West  Level Estimated
06:05PM 14.3546 82.2040 299° West  Level Estimated
06:06PM 14.4149 82.0925 299° West  Level Estimated
06:07PM 14.4752 81.9809 299° West  Level Estimated
06:08PM 14.5354 81.8692 299° West  Level Estimated
06:09PM 14.5955 81.7575 299° West  Level Estimated
06:10PM 14.6557 81.6458 299° West  Level Estimated
06:11PM 14.7157 81.5339 299° West  Level Estimated
06:12PM 14.7757 81.4220 299° West  Level Estimated
06:13PM 14.8356 81.3101 299° West  Level Estimated
06:14PM 14.8955 81.1981 299° West  Level Estimated
06:15PM 14.9553 81.0860 299° West  Level Estimated
06:16PM 15.0151 80.9738 299° West  Level Estimated
06:17PM 15.0749 80.8616 299° West  Level Estimated
06:18PM 15.1345 80.7494 299° West  Level Estimated
06:19PM 15.1941 80.6370 299° West  Level Estimated
06:20PM 15.2537 80.5246 299° West  Level Estimated
06:21PM 15.3132 80.4122 299° West  Level Estimated
06:22PM 15.3726 80.2996 299° West  Level Estimated
06:23PM 15.4320 80.1870 299° West  Level Estimated
06:24PM 15.4913 80.0744 299° West  Level Estimated
06:25PM 15.5506 79.9617 299° West  Level Estimated
06:26PM 15.6098 79.8489 299° West  Level Estimated
06:27PM 15.6690 79.7361 299° West  Level Estimated
06:28PM 15.7281 79.6232 299° West  Level Estimated
06:29PM 15.7871 79.5102 298° West  Level Estimated
06:30PM 15.8461 79.3971 298° West  Level Estimated
06:31PM 15.9050 79.2840 298° West  Level Estimated
06:32PM 15.9639 79.1708 298° West  Level Estimated
06:33PM 16.0227 79.0576 298° West  Level Estimated
06:34PM 16.0814 78.9443 298° West  Level Estimated
06:35PM 16.1401 78.8309 298° West  Level Estimated
06:36PM 16.1988 78.7175 298° West  Level Estimated
06:37PM 16.2573 78.6040 298° West  Level Estimated
06:38PM 16.3158 78.4904 298° West  Level Estimated
06:39PM 16.3743 78.3767 298° West  Level Estimated
06:40PM 16.4327 78.2630 298° West  Level Estimated
06:41PM 16.4910 78.1492 298° West  Level Estimated
06:42PM 16.5493 78.0354 298° West  Level Estimated
06:43PM 16.6075 77.9215 298° West  Level Estimated
06:44PM 16.6656 77.8075 298° West  Level Estimated
06:45PM 16.7237 77.6934 298° West  Level Estimated
06:46PM 16.7817 77.5793 298° West  Level Estimated
06:47PM 16.8396 77.4651 298° West  Level Estimated
06:48PM 16.8975 77.3508 298° West  Level Estimated
06:49PM 16.9554 77.2365 298° West  Level Estimated
06:50PM 17.0131 77.1221 298° West  Level Estimated
06:51PM 17.0708 77.0076 298° West  Level Estimated
06:52PM 17.1284 76.8931 298° West  Level Estimated
06:53PM 17.1860 76.7785 298° West  Level Estimated
06:54PM 17.2435 76.6638 298° West  Level Estimated
06:55PM 17.3009 76.5490 298° West  Level Estimated
06:56PM 17.3583 76.4342 298° West  Level Estimated
06:57PM 17.4156 76.3192 298° West  Level Estimated
06:58PM 17.4729 76.2043 298° West  Level Estimated
06:59PM 17.5300 76.0892 298° West  Level Estimated
07:00PM 17.5871 75.9741 297° West  Level Estimated
07:01PM 17.6442 75.8589 297° West  Level Estimated
07:02PM 17.7012 75.7436 297° West  Level Estimated
07:03PM 17.7581 75.6283 297° West  Level Estimated
07:04PM 17.8149 75.5129 297° West  Level Estimated
07:05PM 17.8717 75.3974 297° West  Level Estimated
07:06PM 17.9284 75.2818 297° West  Level Estimated
07:07PM 17.9850 75.1662 297° West  Level Estimated
07:08PM 18.0416 75.0505 297° West  Level Estimated
07:09PM 18.0981 74.9347 297° West  Level Estimated
07:10PM 18.1545 74.8188 297° West  Level Estimated
07:11PM 18.2109 74.7029 297° West  Level Estimated
07:12PM 18.2672 74.5869 297° West  Level Estimated
07:13PM 18.3234 74.4708 297° West  Level Estimated
07:14PM 18.3795 74.3546 297° West  Level Estimated
07:15PM 18.4356 74.2384 297° West  Level Estimated
07:16PM 18.4916 74.1221 297° West  Level Estimated
07:17PM 18.5476 74.0057 297° West  Level Estimated
07:18PM 18.6034 73.8892 297° West  Level Estimated
07:19PM 18.6592 73.7727 297° West  Level Estimated
07:20PM 18.7149 73.6561 297° West  Level Estimated
07:21PM 18.7706 73.5394 297° West  Level Estimated
07:22PM 18.8262 73.4226 297° West  Level Estimated
07:23PM 18.8817 73.3057 297° West  Level Estimated
07:24PM 18.9371 73.1888 297° West  Level Estimated
07:25PM 18.9925 73.0718 297° West  Level Estimated
07:26PM 19.0478 72.9547 297° West  Level Estimated
07:27PM 19.1030 72.8376 116° Southeast  Level Estimated
07:28PM 19.0478 72.9547 297° West  Level Estimated
07:29PM 19.1030 72.8376 116° Southeast  Level Estimated
07:30PM 19.0478 72.9547 297° West  Level Estimated
07:31PM 19.1030 72.8376 116° Southeast  Level Estimated
07:32PM 19.0478 72.9547 297° West  Level Estimated
07:33PM 19.1030 72.8376 116° Southeast  Level Estimated
07:34PM 19.0478 72.9547 297° West  Level Estimated
07:35PM 19.1030 72.8376 297° West  Level Estimated